sensor_id;sensor_type;location;lat;lon;timestamp;P1;durP1;ratioP1;P2;durP2;ratioP2
37203;SDS011;23098;48.054;10.636;2023-08-30T00:00:39;9.73;;;7.60;;
37203;SDS011;23098;48.054;10.636;2023-08-30T00:03:05;11.35;;;7.45;;
37203;SDS011;23098;48.054;10.636;2023-08-30T00:05:31;15.13;;;7.85;;
37203;SDS011;23098;48.054;10.636;2023-08-30T00:07:57;13.65;;;7.85;;
37203;SDS011;23098;48.054;10.636;2023-08-30T00:10:23;9.50;;;7.20;;
37203;SDS011;23098;48.054;10.636;2023-08-30T00:12:48;9.10;;;7.22;;
37203;SDS011;23098;48.054;10.636;2023-08-30T00:15:14;11.65;;;7.55;;
37203;SDS011;23098;48.054;10.636;2023-08-30T00:17:40;9.95;;;7.63;;
37203;SDS011;23098;48.054;10.636;2023-08-30T00:20:06;10.55;;;7.05;;
37203;SDS011;23098;48.054;10.636;2023-08-30T00:22:33;10.90;;;7.07;;
37203;SDS011;23098;48.054;10.636;2023-08-30T00:24:59;12.93;;;8.20;;
37203;SDS011;23098;48.054;10.636;2023-08-30T00:27:25;13.30;;;8.00;;
37203;SDS011;23098;48.054;10.636;2023-08-30T00:29:50;9.98;;;7.53;;
37203;SDS011;23098;48.054;10.636;2023-08-30T00:32:16;9.77;;;7.63;;
37203;SDS011;23098;48.054;10.636;2023-08-30T00:34:41;9.05;;;7.43;;
37203;SDS011;23098;48.054;10.636;2023-08-30T00:37:07;8.65;;;7.00;;
37203;SDS011;23098;48.054;10.636;2023-08-30T00:39:33;8.95;;;7.10;;
37203;SDS011;23098;48.054;10.636;2023-08-30T00:42:02;11.38;;;7.82;;
37203;SDS011;23098;48.054;10.636;2023-08-30T00:44:30;10.15;;;6.75;;
37203;SDS011;23098;48.054;10.636;2023-08-30T00:46:57;8.90;;;7.22;;
37203;SDS011;23098;48.054;10.636;2023-08-30T00:49:22;9.63;;;7.32;;
37203;SDS011;23098;48.054;10.636;2023-08-30T00:51:48;8.93;;;7.00;;
37203;SDS011;23098;48.054;10.636;2023-08-30T00:54:14;8.85;;;6.93;;
37203;SDS011;23098;48.054;10.636;2023-08-30T00:56:41;8.70;;;7.00;;
37203;SDS011;23098;48.054;10.636;2023-08-30T00:59:06;12.98;;;7.47;;
37203;SDS011;23098;48.054;10.636;2023-08-30T01:01:32;9.02;;;6.88;;
37203;SDS011;23098;48.054;10.636;2023-08-30T01:03:57;8.82;;;7.25;;
37203;SDS011;23098;48.054;10.636;2023-08-30T01:06:23;9.65;;;6.80;;
37203;SDS011;23098;48.054;10.636;2023-08-30T01:08:48;9.07;;;7.18;;
37203;SDS011;23098;48.054;10.636;2023-08-30T01:11:19;8.82;;;6.85;;
37203;SDS011;23098;48.054;10.636;2023-08-30T01:17:09;9.70;;;7.30;;
37203;SDS011;23098;48.054;10.636;2023-08-30T01:19:46;9.98;;;7.10;;
37203;SDS011;23098;48.054;10.636;2023-08-30T01:25:09;9.90;;;7.03;;
37203;SDS011;23098;48.054;10.636;2023-08-30T01:27:37;9.38;;;6.40;;
37203;SDS011;23098;48.054;10.636;2023-08-30T01:30:05;12.10;;;6.70;;
37203;SDS011;23098;48.054;10.636;2023-08-30T01:32:33;11.07;;;7.18;;
37203;SDS011;23098;48.054;10.636;2023-08-30T01:35:00;8.82;;;6.90;;
37203;SDS011;23098;48.054;10.636;2023-08-30T01:37:27;8.38;;;6.45;;
37203;SDS011;23098;48.054;10.636;2023-08-30T01:39:53;8.55;;;6.80;;
37203;SDS011;23098;48.054;10.636;2023-08-30T01:42:21;9.93;;;6.63;;
37203;SDS011;23098;48.054;10.636;2023-08-30T01:44:49;10.02;;;7.00;;
37203;SDS011;23098;48.054;10.636;2023-08-30T01:47:16;12.05;;;6.88;;
37203;SDS011;23098;48.054;10.636;2023-08-30T01:49:43;8.30;;;6.43;;
37203;SDS011;23098;48.054;10.636;2023-08-30T01:52:09;8.50;;;6.93;;
37203;SDS011;23098;48.054;10.636;2023-08-30T01:54:36;10.77;;;7.07;;
37203;SDS011;23098;48.054;10.636;2023-08-30T01:57:05;9.88;;;7.47;;
37203;SDS011;23098;48.054;10.636;2023-08-30T01:59:31;10.52;;;7.40;;
37203;SDS011;23098;48.054;10.636;2023-08-30T02:01:56;10.85;;;7.55;;
37203;SDS011;23098;48.054;10.636;2023-08-30T02:04:22;10.90;;;7.70;;
37203;SDS011;23098;48.054;10.636;2023-08-30T02:07:01;10.43;;;7.68;;
37203;SDS011;23098;48.054;10.636;2023-08-30T02:12:13;10.00;;;7.10;;
37203;SDS011;23098;48.054;10.636;2023-08-30T02:14:44;11.90;;;7.20;;
37203;SDS011;23098;48.054;10.636;2023-08-30T02:17:17;9.18;;;7.22;;
37203;SDS011;23098;48.054;10.636;2023-08-30T02:19:43;11.68;;;6.93;;
37203;SDS011;23098;48.054;10.636;2023-08-30T02:22:09;9.40;;;6.90;;
37203;SDS011;23098;48.054;10.636;2023-08-30T02:24:35;14.30;;;6.45;;
37203;SDS011;23098;48.054;10.636;2023-08-30T02:27:01;10.63;;;6.97;;
37203;SDS011;23098;48.054;10.636;2023-08-30T02:29:26;11.55;;;7.47;;
37203;SDS011;23098;48.054;10.636;2023-08-30T02:31:52;9.00;;;6.55;;
37203;SDS011;23098;48.054;10.636;2023-08-30T02:34:18;9.60;;;6.70;;
37203;SDS011;23098;48.054;10.636;2023-08-30T02:36:44;9.80;;;6.22;;
37203;SDS011;23098;48.054;10.636;2023-08-30T02:42:32;10.13;;;7.10;;
37203;SDS011;23098;48.054;10.636;2023-08-30T02:44:58;9.90;;;6.53;;
37203;SDS011;23098;48.054;10.636;2023-08-30T02:47:23;9.98;;;7.00;;
37203;SDS011;23098;48.054;10.636;2023-08-30T02:49:49;8.60;;;6.35;;
37203;SDS011;23098;48.054;10.636;2023-08-30T02:52:15;10.45;;;6.63;;
37203;SDS011;23098;48.054;10.636;2023-08-30T02:54:40;10.55;;;7.40;;
37203;SDS011;23098;48.054;10.636;2023-08-30T02:57:06;10.73;;;7.50;;
37203;SDS011;23098;48.054;10.636;2023-08-30T02:59:31;11.05;;;7.82;;
37203;SDS011;23098;48.054;10.636;2023-08-30T03:01:57;10.63;;;7.47;;
37203;SDS011;23098;48.054;10.636;2023-08-30T03:04:22;10.05;;;7.18;;
37203;SDS011;23098;48.054;10.636;2023-08-30T03:06:48;10.38;;;6.97;;
37203;SDS011;23098;48.054;10.636;2023-08-30T03:09:13;8.90;;;6.82;;
37203;SDS011;23098;48.054;10.636;2023-08-30T03:11:39;8.52;;;6.57;;
37203;SDS011;23098;48.054;10.636;2023-08-30T03:14:04;10.68;;;6.90;;
37203;SDS011;23098;48.054;10.636;2023-08-30T03:16:30;9.02;;;6.15;;
37203;SDS011;23098;48.054;10.636;2023-08-30T03:18:55;9.45;;;6.10;;
37203;SDS011;23098;48.054;10.636;2023-08-30T03:21:21;9.40;;;7.05;;
37203;SDS011;23098;48.054;10.636;2023-08-30T03:23:47;9.85;;;6.75;;
37203;SDS011;23098;48.054;10.636;2023-08-30T03:26:16;9.05;;;6.82;;
37203;SDS011;23098;48.054;10.636;2023-08-30T03:28:42;11.00;;;7.75;;
37203;SDS011;23098;48.054;10.636;2023-08-30T03:31:15;11.00;;;7.50;;
37203;SDS011;23098;48.054;10.636;2023-08-30T03:33:42;11.27;;;7.95;;
37203;SDS011;23098;48.054;10.636;2023-08-30T03:36:09;10.68;;;7.43;;
37203;SDS011;23098;48.054;10.636;2023-08-30T03:38:36;10.80;;;7.65;;
37203;SDS011;23098;48.054;10.636;2023-08-30T03:41:02;13.20;;;8.48;;
37203;SDS011;23098;48.054;10.636;2023-08-30T03:43:28;11.18;;;8.02;;
37203;SDS011;23098;48.054;10.636;2023-08-30T03:45:54;11.10;;;8.18;;
37203;SDS011;23098;48.054;10.636;2023-08-30T03:48:20;11.93;;;8.70;;
37203;SDS011;23098;48.054;10.636;2023-08-30T03:50:46;13.15;;;9.18;;
37203;SDS011;23098;48.054;10.636;2023-08-30T03:53:22;14.10;;;8.70;;
37203;SDS011;23098;48.054;10.636;2023-08-30T03:55:48;13.73;;;8.45;;
37203;SDS011;23098;48.054;10.636;2023-08-30T03:58:27;14.38;;;8.88;;
37203;SDS011;23098;48.054;10.636;2023-08-30T04:00:53;12.38;;;8.20;;
37203;SDS011;23098;48.054;10.636;2023-08-30T04:03:18;13.05;;;9.25;;
37203;SDS011;23098;48.054;10.636;2023-08-30T04:05:44;12.15;;;8.38;;
37203;SDS011;23098;48.054;10.636;2023-08-30T04:08:09;13.93;;;9.45;;
37203;SDS011;23098;48.054;10.636;2023-08-30T04:10:35;13.25;;;9.13;;
37203;SDS011;23098;48.054;10.636;2023-08-30T04:13:02;12.75;;;8.90;;
37203;SDS011;23098;48.054;10.636;2023-08-30T04:15:28;12.02;;;9.27;;
37203;SDS011;23098;48.054;10.636;2023-08-30T04:17:53;16.60;;;9.43;;
37203;SDS011;23098;48.054;10.636;2023-08-30T04:20:19;12.60;;;9.20;;
37203;SDS011;23098;48.054;10.636;2023-08-30T04:22:44;14.18;;;9.48;;
37203;SDS011;23098;48.054;10.636;2023-08-30T04:25:10;15.75;;;9.52;;
37203;SDS011;23098;48.054;10.636;2023-08-30T04:27:36;14.02;;;9.40;;
37203;SDS011;23098;48.054;10.636;2023-08-30T04:30:01;14.30;;;9.70;;
37203;SDS011;23098;48.054;10.636;2023-08-30T04:32:28;13.48;;;9.50;;
37203;SDS011;23098;48.054;10.636;2023-08-30T04:34:53;12.48;;;9.20;;
37203;SDS011;23098;48.054;10.636;2023-08-30T04:37:19;15.30;;;10.38;;
37203;SDS011;23098;48.054;10.636;2023-08-30T04:39:48;14.13;;;9.70;;
37203;SDS011;23098;48.054;10.636;2023-08-30T04:42:14;14.40;;;10.68;;
37203;SDS011;23098;48.054;10.636;2023-08-30T04:44:40;14.15;;;9.85;;
37203;SDS011;23098;48.054;10.636;2023-08-30T04:47:05;17.70;;;10.38;;
37203;SDS011;23098;48.054;10.636;2023-08-30T04:49:31;14.43;;;10.15;;
37203;SDS011;23098;48.054;10.636;2023-08-30T04:51:56;15.25;;;11.07;;
37203;SDS011;23098;48.054;10.636;2023-08-30T04:54:27;15.43;;;10.27;;
37203;SDS011;23098;48.054;10.636;2023-08-30T04:56:53;16.38;;;11.00;;
37203;SDS011;23098;48.054;10.636;2023-08-30T05:01:49;14.55;;;10.45;;
37203;SDS011;23098;48.054;10.636;2023-08-30T05:04:16;16.52;;;10.52;;
37203;SDS011;23098;48.054;10.636;2023-08-30T05:06:42;14.45;;;10.50;;
37203;SDS011;23098;48.054;10.636;2023-08-30T05:09:08;14.73;;;10.93;;
37203;SDS011;23098;48.054;10.636;2023-08-30T05:11:33;16.58;;;10.75;;
37203;SDS011;23098;48.054;10.636;2023-08-30T05:13:59;17.30;;;10.50;;
37203;SDS011;23098;48.054;10.636;2023-08-30T05:16:24;14.18;;;9.85;;
37203;SDS011;23098;48.054;10.636;2023-08-30T05:18:50;15.15;;;9.57;;
37203;SDS011;23098;48.054;10.636;2023-08-30T05:21:15;12.43;;;9.32;;
37203;SDS011;23098;48.054;10.636;2023-08-30T05:23:41;12.23;;;9.60;;
37203;SDS011;23098;48.054;10.636;2023-08-30T05:26:10;13.23;;;9.40;;
37203;SDS011;23098;48.054;10.636;2023-08-30T05:28:39;13.68;;;9.27;;
37203;SDS011;23098;48.054;10.636;2023-08-30T05:31:05;13.65;;;9.13;;
37203;SDS011;23098;48.054;10.636;2023-08-30T05:33:31;14.93;;;9.80;;
37203;SDS011;23098;48.054;10.636;2023-08-30T05:35:57;14.52;;;10.10;;
37203;SDS011;23098;48.054;10.636;2023-08-30T05:38:22;13.63;;;10.30;;
37203;SDS011;23098;48.054;10.636;2023-08-30T05:40:48;14.55;;;10.00;;
37203;SDS011;23098;48.054;10.636;2023-08-30T05:43:13;16.17;;;10.45;;
37203;SDS011;23098;48.054;10.636;2023-08-30T05:45:40;13.43;;;9.25;;
37203;SDS011;23098;48.054;10.636;2023-08-30T05:48:05;17.27;;;10.07;;
37203;SDS011;23098;48.054;10.636;2023-08-30T05:50:31;15.30;;;9.18;;
37203;SDS011;23098;48.054;10.636;2023-08-30T05:52:57;13.32;;;9.82;;
37203;SDS011;23098;48.054;10.636;2023-08-30T05:55:22;13.27;;;9.45;;
37203;SDS011;23098;48.054;10.636;2023-08-30T05:57:48;15.25;;;9.95;;
37203;SDS011;23098;48.054;10.636;2023-08-30T06:00:13;14.10;;;10.23;;
37203;SDS011;23098;48.054;10.636;2023-08-30T06:02:39;12.60;;;8.95;;
37203;SDS011;23098;48.054;10.636;2023-08-30T06:05:05;12.90;;;9.50;;
37203;SDS011;23098;48.054;10.636;2023-08-30T06:07:31;12.27;;;8.23;;
37203;SDS011;23098;48.054;10.636;2023-08-30T06:09:57;11.38;;;8.82;;
37203;SDS011;23098;48.054;10.636;2023-08-30T06:12:22;10.98;;;8.57;;
37203;SDS011;23098;48.054;10.636;2023-08-30T06:14:48;12.45;;;8.20;;
37203;SDS011;23098;48.054;10.636;2023-08-30T06:17:17;10.55;;;8.18;;
37203;SDS011;23098;48.054;10.636;2023-08-30T06:19:44;9.23;;;7.15;;
37203;SDS011;23098;48.054;10.636;2023-08-30T06:22:10;9.30;;;7.22;;
37203;SDS011;23098;48.054;10.636;2023-08-30T06:24:36;8.52;;;6.72;;
37203;SDS011;23098;48.054;10.636;2023-08-30T06:27:01;8.38;;;6.35;;
37203;SDS011;23098;48.054;10.636;2023-08-30T06:29:27;7.72;;;6.00;;
37203;SDS011;23098;48.054;10.636;2023-08-30T06:31:53;9.57;;;6.25;;
37203;SDS011;23098;48.054;10.636;2023-08-30T06:34:18;11.43;;;6.90;;
37203;SDS011;23098;48.054;10.636;2023-08-30T06:36:44;8.40;;;6.43;;
37203;SDS011;23098;48.054;10.636;2023-08-30T06:39:10;6.68;;;5.97;;
37203;SDS011;23098;48.054;10.636;2023-08-30T06:41:35;8.02;;;6.40;;
37203;SDS011;23098;48.054;10.636;2023-08-30T06:44:01;8.25;;;6.50;;
37203;SDS011;23098;48.054;10.636;2023-08-30T06:46:27;6.32;;;5.43;;
37203;SDS011;23098;48.054;10.636;2023-08-30T06:48:52;7.13;;;5.57;;
37203;SDS011;23098;48.054;10.636;2023-08-30T06:51:18;6.72;;;5.60;;
37203;SDS011;23098;48.054;10.636;2023-08-30T06:53:43;6.72;;;6.00;;
37203;SDS011;23098;48.054;10.636;2023-08-30T06:56:09;6.78;;;5.68;;
37203;SDS011;23098;48.054;10.636;2023-08-30T06:58:34;7.53;;;6.15;;
37203;SDS011;23098;48.054;10.636;2023-08-30T07:01:00;9.65;;;6.30;;
37203;SDS011;23098;48.054;10.636;2023-08-30T07:03:25;6.97;;;5.93;;
37203;SDS011;23098;48.054;10.636;2023-08-30T07:05:51;7.38;;;6.15;;
37203;SDS011;23098;48.054;10.636;2023-08-30T07:08:17;6.55;;;5.75;;
37203;SDS011;23098;48.054;10.636;2023-08-30T07:10:42;7.20;;;6.18;;
37203;SDS011;23098;48.054;10.636;2023-08-30T07:13:08;6.75;;;5.95;;
37203;SDS011;23098;48.054;10.636;2023-08-30T07:15:36;7.70;;;6.00;;
37203;SDS011;23098;48.054;10.636;2023-08-30T07:18:05;6.65;;;5.63;;
37203;SDS011;23098;48.054;10.636;2023-08-30T07:20:32;6.22;;;5.63;;
37203;SDS011;23098;48.054;10.636;2023-08-30T07:22:57;6.65;;;5.82;;
37203;SDS011;23098;48.054;10.636;2023-08-30T07:25:23;6.80;;;5.68;;
37203;SDS011;23098;48.054;10.636;2023-08-30T07:27:49;7.38;;;6.30;;
37203;SDS011;23098;48.054;10.636;2023-08-30T07:30:15;6.20;;;5.60;;
37203;SDS011;23098;48.054;10.636;2023-08-30T07:32:41;7.10;;;5.80;;
37203;SDS011;23098;48.054;10.636;2023-08-30T07:35:07;6.57;;;5.57;;
37203;SDS011;23098;48.054;10.636;2023-08-30T07:37:33;7.07;;;5.35;;
37203;SDS011;23098;48.054;10.636;2023-08-30T07:39:59;7.45;;;6.25;;
37203;SDS011;23098;48.054;10.636;2023-08-30T07:42:25;7.20;;;6.40;;
37203;SDS011;23098;48.054;10.636;2023-08-30T07:44:50;7.40;;;5.72;;
37203;SDS011;23098;48.054;10.636;2023-08-30T07:47:16;7.45;;;5.40;;
37203;SDS011;23098;48.054;10.636;2023-08-30T07:49:41;6.88;;;5.80;;
37203;SDS011;23098;48.054;10.636;2023-08-30T07:52:07;6.88;;;5.32;;
37203;SDS011;23098;48.054;10.636;2023-08-30T07:54:36;8.10;;;5.93;;
37203;SDS011;23098;48.054;10.636;2023-08-30T07:57:03;6.10;;;5.30;;
37203;SDS011;23098;48.054;10.636;2023-08-30T07:59:29;6.60;;;5.65;;
37203;SDS011;23098;48.054;10.636;2023-08-30T08:01:57;7.47;;;5.40;;
37203;SDS011;23098;48.054;10.636;2023-08-30T08:04:24;9.27;;;5.80;;
37203;SDS011;23098;48.054;10.636;2023-08-30T08:06:50;5.63;;;4.90;;
37203;SDS011;23098;48.054;10.636;2023-08-30T08:09:17;6.60;;;5.38;;
37203;SDS011;23098;48.054;10.636;2023-08-30T08:11:42;6.00;;;5.40;;
37203;SDS011;23098;48.054;10.636;2023-08-30T08:14:09;5.80;;;5.18;;
37203;SDS011;23098;48.054;10.636;2023-08-30T08:16:36;6.22;;;5.22;;
37203;SDS011;23098;48.054;10.636;2023-08-30T08:19:02;6.22;;;5.30;;
37203;SDS011;23098;48.054;10.636;2023-08-30T08:21:28;6.20;;;5.05;;
37203;SDS011;23098;48.054;10.636;2023-08-30T08:23:59;8.35;;;5.55;;
37203;SDS011;23098;48.054;10.636;2023-08-30T08:26:25;5.90;;;5.22;;
37203;SDS011;23098;48.054;10.636;2023-08-30T08:28:51;6.13;;;5.07;;
37203;SDS011;23098;48.054;10.636;2023-08-30T08:31:16;5.15;;;4.65;;
37203;SDS011;23098;48.054;10.636;2023-08-30T08:33:43;5.03;;;4.43;;
37203;SDS011;23098;48.054;10.636;2023-08-30T08:36:08;7.00;;;4.38;;
37203;SDS011;23098;48.054;10.636;2023-08-30T08:38:34;5.53;;;4.25;;
37203;SDS011;23098;48.054;10.636;2023-08-30T08:41:01;8.07;;;4.63;;
37203;SDS011;23098;48.054;10.636;2023-08-30T08:43:28;4.97;;;4.32;;
37203;SDS011;23098;48.054;10.636;2023-08-30T08:45:57;5.00;;;4.00;;
37203;SDS011;23098;48.054;10.636;2023-08-30T08:48:25;4.70;;;4.20;;
37203;SDS011;23098;48.054;10.636;2023-08-30T08:50:53;4.68;;;4.03;;
37203;SDS011;23098;48.054;10.636;2023-08-30T08:53:19;5.60;;;3.85;;
37203;SDS011;23098;48.054;10.636;2023-08-30T08:55:45;4.80;;;3.10;;
37203;SDS011;23098;48.054;10.636;2023-08-30T08:58:12;5.10;;;3.58;;
37203;SDS011;23098;48.054;10.636;2023-08-30T09:00:39;3.85;;;3.13;;
37203;SDS011;23098;48.054;10.636;2023-08-30T09:03:09;4.90;;;3.72;;
37203;SDS011;23098;48.054;10.636;2023-08-30T09:05:37;4.50;;;3.08;;
37203;SDS011;23098;48.054;10.636;2023-08-30T09:08:03;3.90;;;2.95;;
37203;SDS011;23098;48.054;10.636;2023-08-30T09:10:31;3.78;;;2.80;;
37203;SDS011;23098;48.054;10.636;2023-08-30T09:13:01;2.78;;;2.55;;
37203;SDS011;23098;48.054;10.636;2023-08-30T09:15:30;5.55;;;3.50;;
37203;SDS011;23098;48.054;10.636;2023-08-30T09:17:57;4.13;;;2.80;;
37203;SDS011;23098;48.054;10.636;2023-08-30T09:20:23;3.40;;;2.50;;
37203;SDS011;23098;48.054;10.636;2023-08-30T09:22:48;4.35;;;2.80;;
37203;SDS011;23098;48.054;10.636;2023-08-30T09:25:22;4.40;;;3.40;;
37203;SDS011;23098;48.054;10.636;2023-08-30T09:27:58;5.25;;;3.50;;
37203;SDS011;23098;48.054;10.636;2023-08-30T09:30:27;5.07;;;3.15;;
37203;SDS011;23098;48.054;10.636;2023-08-30T09:32:53;3.60;;;3.30;;
37203;SDS011;23098;48.054;10.636;2023-08-30T09:35:18;3.70;;;3.13;;
37203;SDS011;23098;48.054;10.636;2023-08-30T09:37:44;4.30;;;3.55;;
37203;SDS011;23098;48.054;10.636;2023-08-30T09:40:10;3.95;;;3.55;;
37203;SDS011;23098;48.054;10.636;2023-08-30T09:42:42;3.40;;;3.10;;
37203;SDS011;23098;48.054;10.636;2023-08-30T09:45:23;3.70;;;3.40;;
37203;SDS011;23098;48.054;10.636;2023-08-30T09:47:49;3.70;;;3.22;;
37203;SDS011;23098;48.054;10.636;2023-08-30T09:50:18;3.80;;;2.75;;
37203;SDS011;23098;48.054;10.636;2023-08-30T09:52:48;3.40;;;2.47;;
37203;SDS011;23098;48.054;10.636;2023-08-30T09:55:15;4.05;;;2.40;;
37203;SDS011;23098;48.054;10.636;2023-08-30T09:57:44;3.38;;;2.80;;
37203;SDS011;23098;48.054;10.636;2023-08-30T10:00:10;4.00;;;3.13;;
37203;SDS011;23098;48.054;10.636;2023-08-30T10:02:43;3.30;;;2.55;;
37203;SDS011;23098;48.054;10.636;2023-08-30T10:05:12;3.75;;;2.67;;
37203;SDS011;23098;48.054;10.636;2023-08-30T10:07:38;3.70;;;2.50;;
37203;SDS011;23098;48.054;10.636;2023-08-30T10:10:04;3.45;;;2.60;;
37203;SDS011;23098;48.054;10.636;2023-08-30T10:12:33;3.03;;;2.38;;
37203;SDS011;23098;48.054;10.636;2023-08-30T10:14:59;2.42;;;2.13;;
37203;SDS011;23098;48.054;10.636;2023-08-30T10:17:32;3.35;;;2.38;;
37203;SDS011;23098;48.054;10.636;2023-08-30T10:19:59;2.35;;;2.15;;
37203;SDS011;23098;48.054;10.636;2023-08-30T10:22:32;3.88;;;2.60;;
37203;SDS011;23098;48.054;10.636;2023-08-30T10:25:02;4.03;;;2.70;;
37203;SDS011;23098;48.054;10.636;2023-08-30T10:27:31;3.28;;;2.30;;
37203;SDS011;23098;48.054;10.636;2023-08-30T10:29:59;2.65;;;2.45;;
37203;SDS011;23098;48.054;10.636;2023-08-30T10:32:27;5.90;;;2.55;;
37203;SDS011;23098;48.054;10.636;2023-08-30T10:34:52;3.08;;;2.47;;
37203;SDS011;23098;48.054;10.636;2023-08-30T10:37:22;4.00;;;2.25;;
37203;SDS011;23098;48.054;10.636;2023-08-30T10:39:51;2.75;;;2.30;;
37203;SDS011;23098;48.054;10.636;2023-08-30T10:42:21;3.45;;;2.40;;
37203;SDS011;23098;48.054;10.636;2023-08-30T10:44:51;3.75;;;2.53;;
37203;SDS011;23098;48.054;10.636;2023-08-30T10:47:22;2.80;;;2.50;;
37203;SDS011;23098;48.054;10.636;2023-08-30T10:49:54;3.20;;;2.40;;
37203;SDS011;23098;48.054;10.636;2023-08-30T10:52:21;2.60;;;2.40;;
37203;SDS011;23098;48.054;10.636;2023-08-30T10:54:47;2.88;;;2.17;;
37203;SDS011;23098;48.054;10.636;2023-08-30T10:57:14;3.08;;;1.77;;
37203;SDS011;23098;48.054;10.636;2023-08-30T11:02:43;1.95;;;1.63;;
37203;SDS011;23098;48.054;10.636;2023-08-30T11:05:11;2.58;;;1.92;;
37203;SDS011;23098;48.054;10.636;2023-08-30T11:07:36;3.22;;;1.90;;
37203;SDS011;23098;48.054;10.636;2023-08-30T11:10:05;3.20;;;1.90;;
37203;SDS011;23098;48.054;10.636;2023-08-30T11:12:31;1.80;;;1.70;;
37203;SDS011;23098;48.054;10.636;2023-08-30T11:14:57;2.00;;;1.80;;
37203;SDS011;23098;48.054;10.636;2023-08-30T11:17:22;2.35;;;1.90;;
37203;SDS011;23098;48.054;10.636;2023-08-30T11:19:50;4.45;;;1.90;;
37203;SDS011;23098;48.054;10.636;2023-08-30T11:22:16;4.30;;;2.00;;
37203;SDS011;23098;48.054;10.636;2023-08-30T11:24:43;3.55;;;2.17;;
37203;SDS011;23098;48.054;10.636;2023-08-30T11:27:12;4.90;;;2.20;;
37203;SDS011;23098;48.054;10.636;2023-08-30T11:29:40;3.03;;;2.60;;
37203;SDS011;23098;48.054;10.636;2023-08-30T11:32:07;2.33;;;2.00;;
37203;SDS011;23098;48.054;10.636;2023-08-30T11:34:33;2.28;;;2.00;;
37203;SDS011;23098;48.054;10.636;2023-08-30T11:39:57;2.83;;;1.77;;
37203;SDS011;23098;48.054;10.636;2023-08-30T11:44:51;2.75;;;2.00;;
37203;SDS011;23098;48.054;10.636;2023-08-30T11:47:18;3.38;;;1.92;;
37203;SDS011;23098;48.054;10.636;2023-08-30T11:49:46;2.63;;;2.05;;
37203;SDS011;23098;48.054;10.636;2023-08-30T11:52:15;3.42;;;2.60;;
37203;SDS011;23098;48.054;10.636;2023-08-30T11:54:42;2.47;;;2.20;;
37203;SDS011;23098;48.054;10.636;2023-08-30T11:57:08;2.38;;;2.17;;
37203;SDS011;23098;48.054;10.636;2023-08-30T12:02:41;1.67;;;1.40;;
37203;SDS011;23098;48.054;10.636;2023-08-30T12:05:25;3.83;;;1.58;;
37203;SDS011;23098;48.054;10.636;2023-08-30T12:07:51;1.60;;;1.50;;
37203;SDS011;23098;48.054;10.636;2023-08-30T12:10:17;3.05;;;1.42;;
37203;SDS011;23098;48.054;10.636;2023-08-30T12:12:45;5.03;;;1.95;;
37203;SDS011;23098;48.054;10.636;2023-08-30T12:15:11;7.15;;;2.50;;
37203;SDS011;23098;48.054;10.636;2023-08-30T12:17:37;5.53;;;2.65;;
37203;SDS011;23098;48.054;10.636;2023-08-30T12:23:00;3.00;;;1.80;;
37203;SDS011;23098;48.054;10.636;2023-08-30T12:25:31;2.50;;;1.50;;
37203;SDS011;23098;48.054;10.636;2023-08-30T12:27:58;4.07;;;1.95;;
37203;SDS011;23098;48.054;10.636;2023-08-30T12:30:24;1.98;;;1.77;;
37203;SDS011;23098;48.054;10.636;2023-08-30T12:33:00;2.58;;;1.27;;
37203;SDS011;23098;48.054;10.636;2023-08-30T12:35:28;1.77;;;1.52;;
37203;SDS011;23098;48.054;10.636;2023-08-30T12:37:54;1.80;;;1.35;;
37203;SDS011;23098;48.054;10.636;2023-08-30T12:40:20;1.60;;;1.40;;
37203;SDS011;23098;48.054;10.636;2023-08-30T12:42:46;3.50;;;1.60;;
37203;SDS011;23098;48.054;10.636;2023-08-30T12:45:11;1.83;;;1.63;;
37203;SDS011;23098;48.054;10.636;2023-08-30T12:47:37;4.13;;;1.40;;
37203;SDS011;23098;48.054;10.636;2023-08-30T12:50:03;3.58;;;1.83;;
37203;SDS011;23098;48.054;10.636;2023-08-30T12:52:28;1.50;;;1.40;;
37203;SDS011;23098;48.054;10.636;2023-08-30T12:54:54;1.77;;;1.60;;
37203;SDS011;23098;48.054;10.636;2023-08-30T12:57:20;2.08;;;1.63;;
37203;SDS011;23098;48.054;10.636;2023-08-30T12:59:45;2.63;;;1.38;;
37203;SDS011;23098;48.054;10.636;2023-08-30T13:02:11;1.75;;;1.55;;
37203;SDS011;23098;48.054;10.636;2023-08-30T13:04:36;1.67;;;1.40;;
37203;SDS011;23098;48.054;10.636;2023-08-30T13:07:02;1.58;;;1.48;;
37203;SDS011;23098;48.054;10.636;2023-08-30T13:09:28;1.52;;;1.40;;
37203;SDS011;23098;48.054;10.636;2023-08-30T13:11:54;1.50;;;1.40;;
37203;SDS011;23098;48.054;10.636;2023-08-30T13:14:19;1.40;;;1.30;;
37203;SDS011;23098;48.054;10.636;2023-08-30T13:16:45;1.50;;;1.40;;
37203;SDS011;23098;48.054;10.636;2023-08-30T13:19:10;4.45;;;1.48;;
37203;SDS011;23098;48.054;10.636;2023-08-30T13:21:36;2.58;;;1.35;;
37203;SDS011;23098;48.054;10.636;2023-08-30T13:24:01;1.75;;;1.13;;
37203;SDS011;23098;48.054;10.636;2023-08-30T13:26:28;2.42;;;1.30;;
37203;SDS011;23098;48.054;10.636;2023-08-30T13:28:53;2.17;;;1.23;;
37203;SDS011;23098;48.054;10.636;2023-08-30T13:31:19;3.80;;;1.27;;
37203;SDS011;23098;48.054;10.636;2023-08-30T13:33:44;1.20;;;1.10;;
37203;SDS011;23098;48.054;10.636;2023-08-30T13:36:10;1.75;;;1.40;;
37203;SDS011;23098;48.054;10.636;2023-08-30T13:38:35;1.38;;;1.27;;
37203;SDS011;23098;48.054;10.636;2023-08-30T13:41:01;1.50;;;1.10;;
37203;SDS011;23098;48.054;10.636;2023-08-30T13:43:28;1.83;;;1.40;;
37203;SDS011;23098;48.054;10.636;2023-08-30T13:45:58;2.70;;;1.27;;
37203;SDS011;23098;48.054;10.636;2023-08-30T13:48:24;1.38;;;1.27;;
37203;SDS011;23098;48.054;10.636;2023-08-30T13:50:50;3.13;;;1.50;;
37203;SDS011;23098;48.054;10.636;2023-08-30T13:53:16;2.17;;;1.30;;
37203;SDS011;23098;48.054;10.636;2023-08-30T13:55:45;2.35;;;1.35;;
37203;SDS011;23098;48.054;10.636;2023-08-30T13:58:14;3.50;;;1.40;;
37203;SDS011;23098;48.054;10.636;2023-08-30T14:00:40;1.92;;;1.50;;
37203;SDS011;23098;48.054;10.636;2023-08-30T14:03:05;2.67;;;1.25;;
37203;SDS011;23098;48.054;10.636;2023-08-30T14:05:32;2.00;;;1.30;;
37203;SDS011;23098;48.054;10.636;2023-08-30T14:07:58;1.63;;;1.30;;
37203;SDS011;23098;48.054;10.636;2023-08-30T14:10:23;1.65;;;1.20;;
37203;SDS011;23098;48.054;10.636;2023-08-30T14:12:49;1.27;;;1.17;;
37203;SDS011;23098;48.054;10.636;2023-08-30T14:15:14;1.63;;;1.10;;
37203;SDS011;23098;48.054;10.636;2023-08-30T14:17:41;4.22;;;1.23;;
37203;SDS011;23098;48.054;10.636;2023-08-30T14:20:06;2.33;;;1.20;;
37203;SDS011;23098;48.054;10.636;2023-08-30T14:22:32;2.90;;;0.93;;
37203;SDS011;23098;48.054;10.636;2023-08-30T14:24:58;4.15;;;1.05;;
37203;SDS011;23098;48.054;10.636;2023-08-30T14:27:24;1.48;;;1.10;;
37203;SDS011;23098;48.054;10.636;2023-08-30T14:29:56;1.20;;;1.10;;
37203;SDS011;23098;48.054;10.636;2023-08-30T14:32:22;1.63;;;1.17;;
37203;SDS011;23098;48.054;10.636;2023-08-30T14:34:47;1.40;;;1.15;;
37203;SDS011;23098;48.054;10.636;2023-08-30T14:37:13;1.30;;;1.20;;
37203;SDS011;23098;48.054;10.636;2023-08-30T14:39:38;1.90;;;1.20;;
37203;SDS011;23098;48.054;10.636;2023-08-30T14:42:04;1.42;;;1.17;;
37203;SDS011;23098;48.054;10.636;2023-08-30T14:44:30;1.90;;;1.00;;
37203;SDS011;23098;48.054;10.636;2023-08-30T14:46:55;1.13;;;0.98;;
37203;SDS011;23098;48.054;10.636;2023-08-30T14:49:21;1.13;;;1.02;;
37203;SDS011;23098;48.054;10.636;2023-08-30T14:51:46;1.20;;;1.10;;
37203;SDS011;23098;48.054;10.636;2023-08-30T14:54:12;1.33;;;1.02;;
37203;SDS011;23098;48.054;10.636;2023-08-30T14:56:37;1.13;;;1.02;;